Time;durP1;ratioP1;P1;durP2;ratioP2;P2;SDS_P1;SDS_P2;PMS_P1;PMS_P2;Temp;Humidity;BMP_temperature;BMP_pressure;BME280_temperature;BME280_humidity;BME280_pressure;Samples;Min_cycle;Max_cycle;Signal;HPM_P1;HPM_P2
2022/05/22 00:00:24;;;;;;;1.00;0.88;;;20.40;56.40;;;;;;5144812;27;43423;-60
2022/05/22 00:02:53;;;;;;;0.73;0.73;;;20.40;56.40;;;;;;5151579;27;43406;-60
2022/05/22 00:05:23;;;;;;;1.92;1.10;;;20.40;56.40;;;;;;5137108;27;45007;-60
2022/05/22 00:07:51;;;;;;;0.93;0.88;;;20.40;56.40;;;;;;5148039;27;43689;-61
2022/05/22 00:10:20;;;;;;;1.75;1.10;;;20.40;56.40;;;;;;5148812;27;43462;-60
2022/05/22 00:12:47;;;;;;;1.30;0.95;;;20.40;57.00;;;;;;5150531;27;43493;-60
2022/05/22 00:15:16;;;;;;;1.40;0.80;;;20.40;56.40;;;;;;5148175;27;43795;-60
2022/05/22 00:17:44;;;;;;;2.10;1.05;;;20.30;56.30;;;;;;5147324;27;43451;-60
2022/05/22 00:20:12;;;;;;;1.50;1.00;;;20.40;56.40;;;;;;5146542;27;43492;-60
2022/05/22 00:22:40;;;;;;;1.13;0.90;;;20.30;56.30;;;;;;5150153;27;43457;-60
2022/05/22 00:25:10;;;;;;;0.85;0.80;;;20.30;56.40;;;;;;5147593;27;44661;-60
2022/05/22 00:27:42;;;;;;;1.35;0.98;;;20.30;56.40;;;;;;5144890;27;43987;-60
2022/05/22 00:30:12;;;;;;;1.77;0.98;;;20.30;56.40;;;;;;5147660;27;43443;-60
2022/05/22 00:32:41;;;;;;;1.02;0.90;;;20.30;56.40;;;;;;5130203;27;43607;-60
2022/05/22 00:35:11;;;;;;;1.42;1.02;;;20.30;56.40;;;;;;5147529;27;45276;-60
2022/05/22 00:37:38;;;;;;;1.52;0.82;;;20.30;56.30;;;;;;5143465;27;43411;-60
2022/05/22 00:40:07;;;;;;;1.60;1.13;;;20.30;56.40;;;;;;5151077;27;43400;-60
2022/05/22 00:42:34;;;;;;;1.30;1.20;;;20.20;56.30;;;;;;5125441;27;43604;-60
2022/05/22 00:45:05;;;;;;;1.02;0.93;;;20.20;56.30;;;;;;5133058;27;45031;-60
2022/05/22 00:47:32;;;;;;;1.40;0.85;;;20.30;56.40;;;;;;5150172;27;43411;-60
2022/05/22 00:50:04;;;;;;;1.13;1.05;;;20.20;56.30;;;;;;5153097;27;43491;-60
2022/05/22 00:52:42;;;;;;;1.48;1.08;;;20.20;56.30;;;;;;5133655;27;43596;-60
2022/05/22 00:55:16;;;;;;;1.15;1.05;;;20.20;56.90;;;;;;5129570;27;44675;-60
2022/05/22 00:57:48;;;;;;;1.85;0.95;;;20.20;56.30;;;;;;5151227;27;43451;-60
2022/05/22 01:00:19;;;;;;;1.27;0.90;;;20.20;56.30;;;;;;5148975;27;43423;-60
2022/05/22 01:05:41;;;;;;;0.88;0.88;;;20.10;56.30;;;;;;5132213;27;45146;-60
2022/05/22 01:08:09;;;;;;;1.38;0.90;;;20.10;56.30;;;;;;5151286;27;43540;-60
2022/05/22 01:10:48;;;;;;;1.33;0.90;;;20.10;56.40;;;;;;5133151;27;43432;-60
2022/05/22 01:13:21;;;;;;;1.15;0.90;;;20.10;56.30;;;;;;5132636;27;43663;-60
2022/05/22 01:15:49;;;;;;;1.15;0.90;;;20.10;56.40;;;;;;5122749;27;44960;-60
2022/05/22 01:18:17;;;;;;;1.23;1.00;;;20.10;56.40;;;;;;5149591;27;43517;-60
2022/05/22 01:20:50;;;;;;;1.38;1.13;;;20.10;56.40;;;;;;5125119;27;44101;-60
2022/05/22 01:23:22;;;;;;;1.25;0.98;;;20.10;56.40;;;;;;5133814;27;43593;-60
2022/05/22 01:25:50;;;;;;;1.17;0.90;;;20.10;56.40;;;;;;5150999;27;45011;-60
2022/05/22 01:28:20;;;;;;;1.65;1.25;;;20.10;56.40;;;;;;5132719;27;43389;-61
2022/05/22 01:30:49;;;;;;;1.83;1.10;;;20.10;56.40;;;;;;5132849;27;43489;-60
2022/05/22 01:33:17;;;;;;;0.85;0.80;;;20.10;56.40;;;;;;5132304;27;43518;-60
2022/05/22 01:35:44;;;;;;;1.00;0.70;;;20.10;56.30;;;;;;5132201;27;44980;-60
2022/05/22 01:38:12;;;;;;;1.30;1.08;;;20.10;56.30;;;;;;5132598;27;43578;-60
2022/05/22 01:40:43;;;;;;;1.25;1.00;;;20.10;56.30;;;;;;5132318;27;43467;-60
2022/05/22 01:43:11;;;;;;;1.25;0.90;;;20.00;56.30;;;;;;5132311;27;43691;-60
2022/05/22 01:45:42;;;;;;;1.08;0.90;;;20.10;56.30;;;;;;5125661;27;44009;-60
2022/05/22 01:48:12;;;;;;;1.05;0.82;;;20.00;56.30;;;;;;5119606;27;43800;-60
2022/05/22 01:50:44;;;;;;;1.05;0.95;;;20.00;56.30;;;;;;5130683;27;43453;-60
2022/05/22 01:53:13;;;;;;;1.23;0.90;;;20.00;56.30;;;;;;5132155;27;43588;-60
2022/05/22 01:55:42;;;;;;;1.38;0.93;;;20.00;56.30;;;;;;5131559;27;44851;-60
2022/05/22 01:58:10;;;;;;;1.88;1.15;;;20.00;56.30;;;;;;5131821;27;43961;-60
2022/05/22 02:00:41;;;;;;;1.50;1.10;;;20.00;56.30;;;;;;5131888;27;43478;-60
2022/05/22 02:03:09;;;;;;;1.73;0.85;;;20.00;56.40;;;;;;5131474;27;43509;-60
2022/05/22 02:05:37;;;;;;;1.75;1.20;;;20.00;56.40;;;;;;5131577;27;43778;-59
2022/05/22 02:08:22;;;;;;;1.42;1.00;;;19.90;56.30;;;;;;5123501;27;43537;-60
2022/05/22 02:11:00;;;;;;;1.08;0.90;;;19.90;56.30;;;;;;5091387;27;43476;-60
2022/05/22 02:13:32;;;;;;;1.20;1.10;;;19.90;56.40;;;;;;5104857;27;43473;-60
2022/05/22 02:15:59;;;;;;;1.77;1.15;;;19.90;56.40;;;;;;5102907;27;44032;-60
2022/05/22 02:18:30;;;;;;;1.70;0.98;;;19.90;56.40;;;;;;5102046;27;43487;-60
2022/05/22 02:20:59;;;;;;;1.23;1.10;;;19.90;56.40;;;;;;5099277;27;43478;-60
2022/05/22 02:23:30;;;;;;;1.13;0.95;;;19.90;56.40;;;;;;5106310;27;43655;-60
2022/05/22 02:25:58;;;;;;;1.75;0.98;;;19.90;56.30;;;;;;5104558;27;43907;-60
2022/05/22 02:28:26;;;;;;;1.27;1.10;;;19.80;56.30;;;;;;5102646;27;43870;-60
2022/05/22 02:30:58;;;;;;;1.33;0.90;;;19.90;56.40;;;;;;5110108;27;44070;-60
2022/05/22 02:33:26;;;;;;;1.30;1.13;;;19.80;56.30;;;;;;5094991;27;43565;-60
2022/05/22 02:36:06;;;;;;;1.33;1.00;;;19.80;56.30;;;;;;5097578;27;44076;-59
2022/05/22 02:38:36;;;;;;;1.27;0.95;;;19.80;56.40;;;;;;5104018;27;43569;-60
2022/05/22 02:41:10;;;;;;;1.35;1.20;;;19.80;56.40;;;;;;5104837;27;43546;-61
2022/05/22 02:43:39;;;;;;;1.05;1.00;;;19.80;56.40;;;;;;5101727;27;43593;-60
2022/05/22 02:46:15;;;;;;;2.13;1.10;;;19.80;56.40;;;;;;5099719;27;44880;-60
2022/05/22 02:48:43;;;;;;;1.77;1.20;;;19.80;56.40;;;;;;5103165;27;43485;-60
2022/05/22 02:51:14;;;;;;;1.83;1.10;;;19.80;56.40;;;;;;5104632;27;43462;-60
2022/05/22 02:53:42;;;;;;;1.77;1.17;;;19.80;56.40;;;;;;5105703;27;43487;-60
2022/05/22 02:56:26;;;;;;;1.15;0.95;;;19.80;56.40;;;;;;5088090;27;44660;-60
2022/05/22 02:59:12;;;;;;;1.35;1.05;;;19.80;56.40;;;;;;5101221;27;43533;-60
2022/05/22 03:02:00;;;;;;;1.17;1.00;;;19.70;56.40;;;;;;5069659;27;43619;-60
2022/05/22 03:04:28;;;;;;;1.17;0.90;;;19.70;56.40;;;;;;5103225;27;43632;-60
2022/05/22 03:07:03;;;;;;;0.88;0.82;;;19.70;56.40;;;;;;5104033;27;43781;-60
2022/05/22 03:09:31;;;;;;;2.10;1.30;;;19.70;56.40;;;;;;5122131;27;43489;-60
2022/05/22 03:12:12;;;;;;;1.10;1.00;;;19.70;56.40;;;;;;5126487;27;43440;-60
2022/05/22 03:14:44;;;;;;;1.40;1.10;;;19.70;56.40;;;;;;5124093;27;43582;-60
2022/05/22 03:17:13;;;;;;;1.38;1.10;;;19.70;57.10;;;;;;5128905;27;45284;-60
2022/05/22 03:19:58;;;;;;;1.67;1.00;;;19.70;56.40;;;;;;5125656;27;43801;-60
2022/05/22 03:22:26;;;;;;;1.52;1.10;;;19.70;56.40;;;;;;5126945;27;43461;-60
2022/05/22 03:24:56;;;;;;;0.90;0.77;;;19.70;56.40;;;;;;5127003;27;43633;-61
2022/05/22 03:27:25;;;;;;;2.22;1.17;;;19.70;56.40;;;;;;5116575;27;44027;-60
2022/05/22 03:29:53;;;;;;;1.35;1.10;;;19.70;56.40;;;;;;5125863;27;43958;-60
2022/05/22 03:32:21;;;;;;;1.33;0.95;;;19.60;56.40;;;;;;5123851;27;43435;-60
2022/05/22 03:34:56;;;;;;;1.40;0.90;;;19.60;56.30;;;;;;5128116;27;43851;-60
2022/05/22 03:37:24;;;;;;;1.13;1.02;;;19.60;56.40;;;;;;5128341;27;43855;-60
2022/05/22 03:39:55;;;;;;;0.80;0.80;;;19.60;56.40;;;;;;5125556;27;43919;-60
2022/05/22 03:42:24;;;;;;;0.80;0.80;;;19.60;56.30;;;;;;5124721;27;44067;-60
2022/05/22 03:44:52;;;;;;;1.10;1.00;;;19.60;56.30;;;;;;5126561;27;43939;-60
2022/05/22 03:47:19;;;;;;;1.00;1.00;;;19.60;56.40;;;;;;5126651;27;43871;-60
2022/05/22 03:50:12;;;;;;;1.35;1.20;;;19.60;56.30;;;;;;5119042;27;44008;-59
2022/05/22 03:52:43;;;;;;;0.90;0.90;;;19.60;56.30;;;;;;5128168;27;43735;-60
2022/05/22 03:55:24;;;;;;;1.48;0.98;;;19.60;56.30;;;;;;5125893;27;43543;-60
2022/05/22 03:57:52;;;;;;;1.60;1.00;;;19.60;56.30;;;;;;5106694;27;44483;-59
2022/05/22 04:00:23;;;;;;;1.08;0.90;;;19.60;56.30;;;;;;5116922;27;43460;-60
2022/05/22 04:02:53;;;;;;;0.98;0.80;;;19.50;56.30;;;;;;5126807;27;43476;-60
2022/05/22 04:05:21;;;;;;;1.05;1.00;;;19.50;56.30;;;;;;5119146;27;43513;-60
2022/05/22 04:07:50;;;;;;;1.17;1.00;;;19.50;56.30;;;;;;5127220;27;45002;-60
2022/05/22 04:10:27;;;;;;;0.70;0.70;;;19.50;56.30;;;;;;5127192;27;43916;-60
2022/05/22 04:12:55;;;;;;;1.35;1.25;;;19.50;56.30;;;;;;5130204;27;43465;-60
2022/05/22 04:15:22;;;;;;;1.23;0.85;;;19.50;56.30;;;;;;5129518;27;43433;-60
2022/05/22 04:17:53;;;;;;;1.00;0.90;;;19.50;56.30;;;;;;5129608;27;43783;-60
2022/05/22 04:20:24;;;;;;;0.65;0.65;;;19.50;56.30;;;;;;5128452;27;43400;-60
2022/05/22 04:25:57;;;;;;;0.98;0.95;;;19.50;56.30;;;;;;5116884;27;43465;-60
2022/05/22 04:28:27;;;;;;;1.10;0.85;;;19.50;56.30;;;;;;5127501;27;43799;-60
2022/05/22 04:31:03;;;;;;;0.70;0.70;;;19.50;56.30;;;;;;5101873;27;43530;-60
2022/05/22 04:33:38;;;;;;;0.65;0.65;;;19.50;56.30;;;;;;5129576;27;43483;-60
2022/05/22 04:36:05;;;;;;;0.70;0.70;;;19.40;56.30;;;;;;5127892;27;43445;-60
2022/05/22 04:38:33;;;;;;;0.88;0.75;;;19.50;56.30;;;;;;5126017;27;44858;-60
2022/05/22 04:41:02;;;;;;;1.10;0.80;;;19.40;56.30;;;;;;5148190;27;44028;-60
2022/05/22 04:43:31;;;;;;;0.80;0.80;;;19.40;56.30;;;;;;5120937;27;43491;-60
2022/05/22 04:45:59;;;;;;;0.88;0.88;;;19.40;56.30;;;;;;5130682;27;43572;-60
2022/05/22 04:48:28;;;;;;;0.73;0.73;;;19.40;56.30;;;;;;5122997;27;44665;-60
2022/05/22 04:51:02;;;;;;;1.25;1.00;;;19.40;56.30;;;;;;5129643;27;43389;-60
2022/05/22 04:53:47;;;;;;;0.70;0.70;;;19.40;56.30;;;;;;5132273;27;43446;-61
2022/05/22 04:56:21;;;;;;;1.10;1.00;;;19.40;56.40;;;;;;5129429;27;43583;-60
2022/05/22 04:58:52;;;;;;;0.80;0.80;;;19.40;56.40;;;;;;5127847;27;44653;-61
2022/05/22 05:01:22;;;;;;;1.35;0.88;;;19.30;56.30;;;;;;5119453;27;43753;-60
2022/05/22 05:04:08;;;;;;;1.35;1.13;;;19.40;56.40;;;;;;5142270;27;43496;-60
2022/05/22 05:06:56;;;;;;;1.17;1.00;;;19.30;56.30;;;;;;5148010;27;43375;-60
2022/05/22 05:09:50;;;;;;;0.90;0.90;;;19.30;56.30;;;;;;5142645;27;45090;-61
2022/05/22 05:12:39;;;;;;;0.82;0.82;;;19.30;56.40;;;;;;5121029;27;43450;-59
2022/05/22 05:15:19;;;;;;;0.80;0.80;;;19.40;56.40;;;;;;5144670;27;43411;-60
2022/05/22 05:17:56;;;;;;;1.52;1.08;;;19.30;56.40;;;;;;5128927;27;43533;-60
2022/05/22 05:20:26;;;;;;;1.25;1.05;;;19.30;56.40;;;;;;5128554;27;43804;-60
2022/05/22 05:23:05;;;;;;;1.10;1.00;;;19.30;56.40;;;;;;5128854;27;43453;-60
2022/05/22 05:25:46;;;;;;;0.95;0.90;;;19.30;56.40;;;;;;5110348;27;43418;-60
2022/05/22 05:28:13;;;;;;;1.02;0.90;;;19.30;56.40;;;;;;5129784;27;43558;-60
2022/05/22 05:30:41;;;;;;;1.17;1.08;;;19.30;56.40;;;;;;5120582;27;44029;-61
2022/05/22 05:33:09;;;;;;;1.92;0.90;;;19.30;56.40;;;;;;5132267;27;43502;-62
2022/05/22 05:35:57;;;;;;;1.55;0.93;;;19.30;56.40;;;;;;5138625;27;43539;-62
2022/05/22 05:38:45;;;;;;;1.17;1.08;;;19.30;56.40;;;;;;5150962;27;43596;-62
2022/05/22 05:41:44;;;;;;;1.10;1.00;;;19.30;56.50;;;;;;5136530;27;45008;-62
2022/05/22 05:44:14;;;;;;;1.30;1.20;;;19.20;56.40;;;;;;5132467;27;43411;-62
2022/05/22 05:47:02;;;;;;;1.25;1.08;;;19.30;56.40;;;;;;5135688;27;43549;-60
2022/05/22 05:49:40;;;;;;;0.90;0.90;;;19.30;56.50;;;;;;5124728;27;43469;-59
2022/05/22 05:52:37;;;;;;;1.08;0.82;;;19.30;56.50;;;;;;5141109;27;43849;-61
2022/05/22 05:55:28;;;;;;;1.10;0.90;;;19.30;56.50;;;;;;5123494;27;44230;-60
2022/05/22 05:58:31;;;;;;;1.08;0.98;;;19.20;56.40;;;;;;5138323;27;43505;-60
2022/05/22 06:01:27;;;;;;;1.48;1.17;;;19.20;56.40;;;;;;5121423;27;43555;-60
2022/05/22 06:03:55;;;;;;;1.10;1.00;;;19.20;56.50;;;;;;5131773;27;43854;-60
2022/05/22 06:06:23;;;;;;;0.82;0.80;;;19.20;56.60;;;;;;5132920;27;44125;-60
2022/05/22 06:08:55;;;;;;;1.48;1.00;;;19.20;56.60;;;;;;5113544;27;43638;-59
2022/05/22 06:11:41;;;;;;;1.15;0.90;;;19.20;56.70;;;;;;5150820;27;43460;-60
2022/05/22 06:14:18;;;;;;;3.13;1.05;;;19.20;56.70;;;;;;5133130;27;44958;-59
2022/05/22 06:16:47;;;;;;;1.27;1.00;;;19.20;56.80;;;;;;5131422;27;43553;-60
2022/05/22 06:19:53;;;;;;;1.10;1.00;;;19.20;56.80;;;;;;5127306;27;43409;-60
2022/05/22 06:22:05;;;;;;;1.17;1.00;;;19.20;56.70;;;;;;5129831;27;43410;-60
2022/05/22 06:24:37;;;;;;;1.02;0.80;;;19.20;56.80;;;;;;5115733;27;45416;-60
2022/05/22 06:27:31;;;;;;;1.45;0.85;;;19.20;56.80;;;;;;5140722;27;43476;-59
2022/05/22 06:30:13;;;;;;;1.73;0.88;;;19.20;56.80;;;;;;5134542;27;43492;-59
2022/05/22 06:33:15;;;;;;;2.78;1.30;;;19.20;56.80;;;;;;5122609;27;43529;-59
2022/05/22 06:36:22;;;;;;;;;;;19.20;56.80;;;;;;5080664;28;45078;-60
2022/05/22 06:42:00;;;;;;;1.67;1.10;;;19.20;56.90;;;;;;5134711;27;43482;-60
2022/05/22 06:45:00;;;;;;;1.00;1.00;;;19.20;56.90;;;;;;5109172;27;43510;-60
2022/05/22 06:47:46;;;;;;;1.52;1.13;;;19.20;56.80;;;;;;5147644;27;43854;-60
2022/05/22 06:50:27;;;;;;;1.45;1.00;;;19.20;56.90;;;;;;5131032;27;43501;-60
2022/05/22 06:53:24;;;;;;;1.67;1.20;;;19.20;56.80;;;;;;5066630;27;43449;-59
2022/05/22 06:55:55;;;;;;;1.00;0.93;;;19.20;56.80;;;;;;5147070;27;43520;-59
2022/05/22 06:58:36;;;;;;;1.45;0.77;;;19.20;56.90;;;;;;5143884;27;45041;-59
2022/05/22 07:01:18;;;;;;;1.00;0.93;;;19.20;56.90;;;;;;5144860;27;43906;-60
2022/05/22 07:04:05;;;;;;;1.85;1.23;;;19.20;56.80;;;;;;5146915;27;43471;-60
2022/05/22 07:06:32;;;;;;;3.33;1.70;;;19.20;56.90;;;;;;5149719;27;43589;-59
2022/05/22 07:09:22;;;;;;;1.40;0.95;;;19.20;56.80;;;;;;5129575;27;44879;-60
2022/05/22 07:12:10;;;;;;;1.95;1.33;;;19.20;56.80;;;;;;5148526;27;43467;-60
2022/05/22 07:14:43;;;;;;;0.85;0.85;;;19.20;56.80;;;;;;5113333;27;43409;-60
2022/05/22 07:17:21;;;;;;;1.00;0.85;;;19.20;56.70;;;;;;5113679;27;43649;-60
2022/05/22 07:20:12;;;;;;;0.98;0.88;;;19.20;56.70;;;;;;5133342;27;45065;-60
2022/05/22 07:22:43;;;;;;;1.98;1.00;;;19.20;56.70;;;;;;5131150;27;43408;-60
2022/05/22 07:25:22;;;;;;;1.33;1.00;;;19.20;56.80;;;;;;5131251;27;43399;-60
2022/05/22 07:28:08;;;;;;;0.88;0.82;;;19.20;56.70;;;;;;5120410;27;43513;-59
2022/05/22 07:30:57;;;;;;;1.75;0.90;;;19.30;56.80;;;;;;5139307;27;44944;-60
2022/05/22 07:33:33;;;;;;;1.08;0.98;;;19.20;56.70;;;;;;5145768;27;43387;-59
2022/05/22 07:36:15;;;;;;;0.88;0.88;;;19.30;56.70;;;;;;5130269;27;43511;-60
2022/05/22 07:39:09;;;;;;;2.47;1.10;;;19.30;56.70;;;;;;5117184;27;43585;-60
2022/05/22 07:41:48;;;;;;;1.73;1.08;;;19.30;56.70;;;;;;5117841;27;44725;-59
2022/05/22 07:44:34;;;;;;;1.02;0.93;;;19.30;56.70;;;;;;5133277;27;43536;-59
2022/05/22 07:47:19;;;;;;;1.02;0.77;;;19.30;56.70;;;;;;5130164;27;44065;-59
2022/05/22 07:52:59;;;;;;;1.13;1.00;;;19.30;56.70;;;;;;5146693;27;44025;-59
2022/05/22 07:55:41;;;;;;;1.00;0.88;;;19.30;56.80;;;;;;5140915;27;43868;-59
2022/05/22 07:58:27;;;;;;;1.27;0.80;;;19.30;56.80;;;;;;5130062;27;43399;-59
2022/05/22 08:01:03;;;;;;;0.98;0.88;;;19.30;56.80;;;;;;5130233;27;43487;-60
2022/05/22 08:03:49;;;;;;;1.00;0.80;;;19.20;56.70;;;;;;5148883;27;44733;-59
2022/05/22 08:06:55;;;;;;;1.25;0.88;;;19.20;56.70;;;;;;5037038;28;43553;-59
2022/05/22 08:09:38;;;;;;;1.08;0.93;;;19.30;56.80;;;;;;5033172;28;43565;-59
2022/05/22 08:12:08;;;;;;;1.52;0.98;;;19.30;56.80;;;;;;5089266;27;43588;-59
2022/05/22 08:14:36;;;;;;;0.95;0.82;;;19.20;56.70;;;;;;5131962;27;43762;-59
2022/05/22 08:17:04;;;;;;;0.70;0.70;;;19.20;56.70;;;;;;5102388;27;43759;-59
2022/05/22 08:19:33;;;;;;;1.55;0.85;;;19.30;56.80;;;;;;5126040;27;43467;-59
2022/05/22 08:22:19;;;;;;;0.88;0.73;;;19.30;56.70;;;;;;5150793;27;43550;-60
2022/05/22 08:25:06;;;;;;;0.70;0.70;;;19.30;56.70;;;;;;5137382;27;43896;-59
2022/05/22 08:27:37;;;;;;;1.15;0.80;;;19.30;56.70;;;;;;5110518;27;43997;-59
2022/05/22 08:30:06;;;;;;;1.15;0.90;;;19.30;56.70;;;;;;5123675;27;43552;-60
2022/05/22 08:32:38;;;;;;;1.02;0.93;;;19.30;56.70;;;;;;5130387;27;44046;-60
2022/05/22 08:35:08;;;;;;;1.05;0.90;;;19.30;56.70;;;;;;5147665;27;44037;-59
2022/05/22 08:37:36;;;;;;;1.00;0.90;;;19.30;56.70;;;;;;5146924;27;43487;-60
2022/05/22 08:40:04;;;;;;;1.02;0.80;;;19.30;56.60;;;;;;5132663;27;43459;-59
2022/05/22 08:42:53;;;;;;;1.00;0.90;;;19.30;56.60;;;;;;5147745;27;43571;-60
2022/05/22 08:45:28;;;;;;;1.05;0.90;;;19.40;56.70;;;;;;5145050;27;44972;-60
2022/05/22 08:48:23;;;;;;;1.02;0.90;;;19.40;56.60;;;;;;5144449;27;43999;-59
2022/05/22 08:50:54;;;;;;;0.63;0.63;;;19.40;56.50;;;;;;5125260;27;43955;-59
2022/05/22 08:53:51;;;;;;;1.00;0.90;;;19.40;56.60;;;;;;5148602;27;43528;-59
2022/05/22 08:59:25;;;;;;;0.82;0.82;;;19.40;56.60;;;;;;5146870;27;43478;-60
2022/05/22 09:02:16;;;;;;;1.02;0.82;;;19.50;56.70;;;;;;5146880;27;43555;-60
2022/05/22 09:04:49;;;;;;;1.08;0.90;;;19.50;56.70;;;;;;5149745;27;43374;-60
2022/05/22 09:07:38;;;;;;;0.75;0.63;;;19.50;56.60;;;;;;5152575;27;43784;-60
2022/05/22 09:10:07;;;;;;;1.02;0.85;;;19.50;56.60;;;;;;5151275;27;43702;-59
2022/05/22 09:12:53;;;;;;;0.93;0.73;;;19.50;56.60;;;;;;5151230;27;43433;-60
2022/05/22 09:15:28;;;;;;;2.15;1.30;;;19.50;56.60;;;;;;5153924;27;43540;-60
2022/05/22 09:18:01;;;;;;;1.55;0.80;;;19.50;56.60;;;;;;5150735;27;43792;-60
2022/05/22 09:20:34;;;;;;;1.13;1.00;;;19.50;56.70;;;;;;5143446;27;43498;-60
2022/05/22 09:23:31;;;;;;;0.93;0.85;;;19.50;56.70;;;;;;5133153;27;43470;-60
2022/05/22 09:26:18;;;;;;;1.02;0.80;;;19.50;56.80;;;;;;5140290;27;43475;-60
2022/05/22 09:29:01;;;;;;;1.02;0.93;;;19.50;56.80;;;;;;5146994;27;44685;-60
2022/05/22 09:32:04;;;;;;;0.93;0.63;;;19.50;56.70;;;;;;5148010;27;43475;-60
2022/05/22 09:34:56;;;;;;;0.95;0.70;;;19.50;56.70;;;;;;5151315;27;43523;-60
2022/05/22 09:37:45;;;;;;;1.00;0.90;;;19.50;56.70;;;;;;5150631;27;43438;-60
2022/05/22 09:40:27;;;;;;;1.42;0.98;;;19.50;56.60;;;;;;5143805;27;44652;-60
2022/05/22 09:43:21;;;;;;;1.30;0.90;;;19.60;56.60;;;;;;5151102;27;43527;-60
2022/05/22 09:46:09;;;;;;;1.45;0.65;;;19.60;56.90;;;;;;5141726;27;43429;-59
2022/05/22 09:49:14;;;;;;;0.93;0.80;;;19.60;56.80;;;;;;5150788;27;43518;-60
2022/05/22 09:52:19;;;;;;;1.45;1.00;;;19.60;56.70;;;;;;5136541;27;44668;-60
2022/05/22 09:54:56;;;;;;;0.88;0.80;;;19.70;56.90;;;;;;5153007;27;43921;-60
2022/05/22 09:57:45;;;;;;;1.75;0.80;;;19.70;56.90;;;;;;5146864;27;43449;-60
2022/05/22 10:00:15;;;;;;;0.70;0.70;;;19.80;57.00;;;;;;5150960;27;43396;-60
2022/05/22 10:03:04;;;;;;;0.90;0.73;;;19.80;57.00;;;;;;5148656;27;43798;-60
2022/05/22 10:06:15;;;;;;;1.33;1.08;;;19.80;56.90;;;;;;5140912;27;43660;-60
2022/05/22 10:09:11;;;;;;;0.87;0.80;;;19.80;57.00;;;;;;5148564;27;43441;-59
2022/05/22 10:12:01;;;;;;;1.05;0.90;;;19.90;56.90;;;;;;5150991;27;44093;-60
2022/05/22 10:15:34;;;;;;;1.23;0.90;;;19.90;56.90;;;;;;5143744;27;45029;-60
2022/05/22 10:18:48;;;;;;;0.77;0.77;;;19.90;56.90;;;;;;5124167;27;43770;-59
2022/05/22 10:21:18;;;;;;;1.42;0.85;;;19.90;56.90;;;;;;5143628;27;43500;-59
2022/05/22 10:24:19;;;;;;;;;;;19.90;56.80;;;;;;5146417;27;43411;-60
2022/05/22 10:27:23;;;;;;;0.82;0.80;;;19.90;56.90;;;;;;5103228;27;45578;-60
2022/05/22 10:30:00;;;;;;;0.82;0.70;;;19.90;56.80;;;;;;5145929;27;43506;-59
2022/05/22 10:32:47;;;;;;;1.30;1.00;;;19.90;56.90;;;;;;5150925;27;43421;-59
2022/05/22 10:35:38;;;;;;;0.82;0.82;;;20.00;56.80;;;;;;5142265;27;43366;-59
2022/05/22 10:38:29;;;;;;;1.15;0.80;;;20.00;56.70;;;;;;5151761;27;43800;-60
2022/05/22 10:43:48;;;;;;;1.50;0.85;;;20.00;56.70;;;;;;5151389;27;43604;-60
2022/05/22 10:46:15;;;;;;;0.77;0.77;;;20.10;56.60;;;;;;5127782;27;43411;-60
2022/05/22 10:48:53;;;;;;;0.60;0.60;;;20.00;56.60;;;;;;5149833;27;45332;-59
2022/05/22 10:51:24;;;;;;;1.35;0.90;;;20.10;56.50;;;;;;5145605;27;43707;-59
2022/05/22 10:53:55;;;;;;;0.90;0.73;;;20.10;56.50;;;;;;5146995;27;43538;-60
2022/05/22 10:56:27;;;;;;;1.00;0.65;;;20.10;56.40;;;;;;5137738;27;43860;-60
2022/05/22 10:58:59;;;;;;;0.63;0.57;;;20.10;56.40;;;;;;5146678;27;44785;-60
2022/05/22 11:01:29;;;;;;;0.85;0.60;;;20.10;56.40;;;;;;5149261;27;43974;-60
2022/05/22 11:04:06;;;;;;;0.93;0.93;;;20.10;56.40;;;;;;5149827;27;43483;-60
2022/05/22 11:06:37;;;;;;;0.88;0.73;;;20.20;56.30;;;;;;5149599;27;43419;-60
2022/05/22 11:09:06;;;;;;;1.40;0.80;;;20.20;56.40;;;;;;5149488;27;45000;-60
2022/05/22 11:11:37;;;;;;;0.70;0.68;;;20.20;56.40;;;;;;5131382;27;43649;-60
2022/05/22 11:14:08;;;;;;;1.08;0.80;;;20.20;56.60;;;;;;5136619;27;43480;-59
2022/05/22 11:16:37;;;;;;;0.80;0.80;;;20.20;56.50;;;;;;5149481;27;44074;-60
2022/05/22 11:19:04;;;;;;;0.95;0.60;;;20.30;56.50;;;;;;5140738;27;43767;-60
2022/05/22 11:21:41;;;;;;;1.83;0.90;;;20.30;56.50;;;;;;5149663;27;43692;-60
2022/05/22 11:24:41;;;;;;;0.85;0.80;;;20.30;56.50;;;;;;5146684;27;43377;-60
2022/05/22 11:27:28;;;;;;;1.23;0.90;;;20.30;56.40;;;;;;5149674;27;43575;-59
2022/05/22 11:30:11;;;;;;;0.75;0.75;;;20.40;56.50;;;;;;5138421;27;44700;-60
2022/05/22 11:32:48;;;;;;;1.33;0.85;;;20.40;56.40;;;;;;5149145;27;43982;-60
2022/05/22 11:35:30;;;;;;;1.48;0.80;;;20.40;56.40;;;;;;5147361;27;43472;-60
2022/05/22 11:38:26;;;;;;;0.85;0.70;;;20.40;56.40;;;;;;5149048;27;43490;-60
2022/05/22 11:41:32;;;;;;;0.70;0.70;;;20.40;56.50;;;;;;5103955;27;43772;-60
2022/05/22 11:44:30;;;;;;;1.15;0.70;;;20.40;56.50;;;;;;5138577;27;43558;-60
2022/05/22 11:47:32;;;;;;;1.13;0.90;;;20.50;56.50;;;;;;5127470;27;43518;-60
2022/05/22 11:50:22;;;;;;;;;;;20.50;57.20;;;;;;5127201;27;43530;-60
2022/05/22 11:53:02;;;;;;;1.75;0.75;;;20.50;56.90;;;;;;5138641;27;44791;-60
2022/05/22 11:55:38;;;;;;;1.27;1.17;;;20.60;57.20;;;;;;5139100;27;43534;-60
2022/05/22 11:58:43;;;;;;;0.85;0.80;;;20.70;57.50;;;;;;5149064;27;43538;-60
2022/05/22 12:01:28;;;;;;;1.55;0.95;;;20.70;57.30;;;;;;5143352;27;43457;-59
2022/05/22 12:04:13;;;;;;;1.00;0.73;;;20.80;57.40;;;;;;5148420;27;44172;-60
2022/05/22 12:07:19;;;;;;;1.05;0.80;;;20.80;57.20;;;;;;5117545;27;43472;-60
2022/05/22 12:09:55;;;;;;;0.82;0.80;;;20.90;57.10;;;;;;5150440;27;43431;-59
2022/05/22 12:12:38;;;;;;;0.63;0.52;;;20.90;56.80;;;;;;5149603;27;43442;-60
2022/05/22 12:15:31;;;;;;;1.08;0.70;;;21.00;57.00;;;;;;5146752;27;44086;-59
2022/05/22 12:18:31;;;;;;;1.02;0.70;;;21.00;56.90;;;;;;5148108;27;43424;-59
2022/05/22 12:21:12;;;;;;;0.70;0.70;;;21.00;56.70;;;;;;5140865;27;43483;-60
2022/05/22 12:23:45;;;;;;;0.82;0.80;;;21.10;56.70;;;;;;5148834;27;43439;-60
2022/05/22 12:26:13;;;;;;;1.02;0.60;;;21.10;56.60;;;;;;5150686;27;43798;-59
2022/05/22 12:28:56;;;;;;;0.80;0.60;;;21.20;56.50;;;;;;5144752;27;43691;-60
2022/05/22 12:31:30;;;;;;;0.73;0.73;;;21.20;56.50;;;;;;5145662;27;43448;-59
2022/05/22 12:34:10;;;;;;;1.20;0.73;;;21.20;56.50;;;;;;5149234;27;43476;-60
2022/05/22 12:36:40;;;;;;;0.70;0.60;;;21.30;56.40;;;;;;5147961;27;43885;-59
2022/05/22 12:39:11;;;;;;;1.83;0.90;;;21.30;56.40;;;;;;5133422;27;43638;-60
2022/05/22 12:42:03;;;;;;;0.77;0.77;;;21.30;56.30;;;;;;5149966;27;43366;-59
2022/05/22 12:44:32;;;;;;;0.68;0.68;;;21.30;56.20;;;;;;5148635;27;43424;-59
2022/05/22 12:46:59;;;;;;;0.80;0.80;;;21.40;56.30;;;;;;5149292;27;43801;-59
2022/05/22 12:49:30;;;;;;;1.35;0.60;;;21.40;56.20;;;;;;5152617;27;43703;-59
2022/05/22 12:51:59;;;;;;;0.73;0.73;;;21.50;56.20;;;;;;5153886;27;43433;-59
2022/05/22 12:54:30;;;;;;;1.20;0.70;;;21.50;56.10;;;;;;5151561;27;43492;-59
2022/05/22 12:57:09;;;;;;;;;;;21.50;56.10;;;;;;5145231;27;44732;-59
2022/05/22 12:59:37;;;;;;;0.60;0.60;;;21.50;56.10;;;;;;5153901;27;43485;-59
2022/05/22 13:02:05;;;;;;;0.52;0.52;;;21.50;56.10;;;;;;5149166;27;44142;-59
2022/05/22 13:04:51;;;;;;;0.50;0.50;;;21.50;56.10;;;;;;5142398;27;43532;-60
2022/05/22 13:07:35;;;;;;;0.50;0.50;;;21.50;56.10;;;;;;5153127;27;44689;-60
2022/05/22 13:10:27;;;;;;;0.50;0.50;;;21.50;56.00;;;;;;5151222;27;43421;-59
2022/05/22 13:13:02;;;;;;;0.60;0.60;;;21.50;55.90;;;;;;5151026;27;43470;-59
2022/05/22 13:15:31;;;;;;;0.68;0.68;;;21.50;56.10;;;;;;5150664;27;43436;-59
2022/05/22 13:18:12;;;;;;;0.80;0.77;;;21.50;56.00;;;;;;5146633;27;45022;-59
2022/05/22 13:20:39;;;;;;;0.70;0.70;;;21.50;55.90;;;;;;5137146;27;43576;-59
2022/05/22 13:23:23;;;;;;;0.55;0.50;;;21.50;55.90;;;;;;5147717;27;43520;-59
2022/05/22 13:25:52;;;;;;;0.85;0.50;;;21.50;56.00;;;;;;5139473;27;43398;-59
2022/05/22 13:28:31;;;;;;;0.80;0.63;;;21.50;56.10;;;;;;5132046;27;45001;-59
2022/05/22 13:31:08;;;;;;;0.95;0.60;;;21.50;56.00;;;;;;5151744;27;43431;-58
2022/05/22 13:33:44;;;;;;;0.52;0.52;;;21.60;56.00;;;;;;5150753;27;43475;-59
2022/05/22 13:36:31;;;;;;;1.05;0.60;;;21.60;56.10;;;;;;5150691;27;43480;-59
2022/05/22 13:39:04;;;;;;;0.70;0.70;;;21.60;56.10;;;;;;5148126;27;43796;-60
2022/05/22 13:41:49;;;;;;;0.60;0.57;;;21.70;56.10;;;;;;5149795;27;43544;-59
2022/05/22 13:44:57;;;;;;;0.82;0.60;;;21.70;56.10;;;;;;5151287;27;43416;-59
2022/05/22 13:47:44;;;;;;;0.77;0.68;;;21.70;56.00;;;;;;5149454;27;43382;-59
2022/05/22 13:53:48;;;;;;;0.93;0.65;;;21.70;56.00;;;;;;5150844;27;43423;-60
2022/05/22 13:56:31;;;;;;;0.98;0.90;;;21.80;56.10;;;;;;5147439;27;43482;-60
2022/05/22 13:58:58;;;;;;;0.70;0.65;;;21.80;56.10;;;;;;5144700;27;44072;-59
2022/05/22 14:01:26;;;;;;;0.52;0.52;;;21.80;56.10;;;;;;5146877;27;43799;-59
2022/05/22 14:03:57;;;;;;;0.75;0.73;;;21.80;55.90;;;;;;5132026;27;43957;-59